Irving Johnson — WDB3153 — position and weather

sailwx.info

Track history (hours):
 
Tides and Currents Weather Stations Pressure Air Temp Water Temp Dewpoint Dewpoint Depression Visibility Wind Speed Wind Dir Waves Ship Positions

Irving Johnson (United States)

Ship's website: http://www.lamitopsail.org/

Owner: Los Angeles Maritime Institute, San Pedro, CA. More information available from US FCC via Universal Licensing System and Coast Guard Vessel Documentation Center.

Last reported at 2019-Dec-12 07:29 UTC. Time now 2019-Dec-12 08:10 UTC.
Position N 33°44' W 118°17'.

; draft 4 m.

Type: Sailing vessel. MMSI: 369725000.

Date/timePositionNaut miles runAvg speedWind from/ knotsBaromVisibWave heightAir tempDewpointWater temp
2019-Dec-12 07:29N 33°44' W 118°17'0 0.0
2019-Dec-12 05:59N 33°44' W 118°17'0 0.0
2019-Dec-12 04:30N 33°44' W 118°17'0 0.0
2019-Dec-12 01:58N 33°44' W 118°17'0 0.0
2019-Dec-12 01:28N 33°44' W 118°17'0 0.0
2019-Dec-12 00:23N 33°44' W 118°17'0 0.0
2019-Dec-11 23:59N 33°44' W 118°17'0 0.0
2019-Dec-11 22:28N 33°44' W 118°17'0 0.0
2019-Dec-11 20:56N 33°44' W 118°17'0 0.0
2019-Dec-11 19:29N 33°44' W 118°17'0 0.0
2019-Dec-11 10:59N 33°44' W 118°17'0 0.0
2019-Dec-11 08:54N 33°44' W 118°17'0 0.0
2019-Dec-11 07:29N 33°44' W 118°17'0 0.0
2019-Dec-11 05:58N 33°44' W 118°17'0 0.0
2019-Dec-11 04:26N 33°44' W 118°17'0 0.0
2019-Dec-11 03:31N 33°44' W 118°17'0 0.0
2019-Dec-11 03:01N 33°44' W 118°17'1 0.3
2019-Dec-10 23:00N 33°43' W 118°16'1 1.1
2019-Dec-10 21:58N 33°44' W 118°17'0 0.0
2019-Dec-10 20:25N 33°44' W 118°17'3 1.5
2019-Dec-10 18:30N 33°42' W 118°14'2 1.2
2019-Dec-10 16:30N 33°43' W 118°16'1 0.3
2019-Dec-10 14:30N 33°44' W 118°17'0 0.0
2019-Dec-10 12:50N 33°44' W 118°17'0 0.0
2019-Dec-10 12:29N 33°44' W 118°17'0 0.0
2019-Dec-10 11:27N 33°44' W 118°17'0 0.0
2019-Dec-10 10:23N 33°44' W 118°17'0 0.0
2019-Dec-10 09:24N 33°44' W 118°17'0 0.0
2019-Dec-10 08:37N 33°44' W 118°17'0 0.0
2019-Dec-10 06:29N 33°44' W 118°17'0 0.0
2019-Dec-10 02:45N 33°44' W 118°17'0 0.0
2019-Dec-10 01:58N 33°44' W 118°17'0 0.0
2019-Dec-09 21:58N 33°44' W 118°17'0 0.0
2019-Dec-09 20:58N 33°44' W 118°17'0 0.0
2019-Dec-09 20:25N 33°44' W 118°17'0 0.0
2019-Dec-09 19:54N 33°44' W 118°17'1 0.1
2019-Dec-09 04:30N 33°45' W 118°16'1 0.9
2019-Dec-09 03:26N 33°44' W 118°17'0 0.0
2019-Dec-08 22:23N 33°44' W 118°17'0 0.0
2019-Dec-08 20:27N 33°44' W 118°17'0 0.0
2019-Dec-08 19:53N 33°44' W 118°17'0 0.0
2019-Dec-08 17:56N 33°44' W 118°17'0 0.0
2019-Dec-08 16:51N 33°44' W 118°17'0 0.0
2019-Dec-08 12:55N 33°44' W 118°17'0 0.0
2019-Dec-08 10:34N 33°44' W 118°17'0 0.1
2019-Dec-08 09:53N 33°44' W 118°17'0 0.1
2019-Dec-08 09:00N 33°44' W 118°17'0 0.0
2019-Dec-08 03:30N 33°44' W 118°17'2 3.4
2019-Dec-08 03:01N 33°45' W 118°16'1 1.8
2019-Dec-08 02:30N 33°46' W 118°15'2 1.8
2019-Dec-08 01:30N 33°45' W 118°16'0 0.2
2019-Dec-07 23:59N 33°44' W 118°17'0 0.0
2019-Dec-07 23:28N 33°44' W 118°17'0 0.0
2019-Dec-07 21:27N 33°44' W 118°17'0 0.0
2019-Dec-07 20:30N 33°44' W 118°17'0 0.0
2019-Dec-07 15:29N 33°44' W 118°17'0 0.0
2019-Dec-07 14:24N 33°44' W 118°17'0 0.0
2019-Dec-07 13:58N 33°44' W 118°17'0 0.0
2019-Dec-07 10:28N 33°44' W 118°17'0 0.0
2019-Dec-07 09:29N 33°44' W 118°17'0 0.0
2019-Dec-07 08:19N 33°44' W 118°17'0 0.0
2019-Dec-07 07:00N 33°44' W 118°17'0 0.0
2019-Dec-07 06:24N 33°44' W 118°17'0 0.0
2019-Dec-07 04:30N 33°44' W 118°17'0 0.0
2019-Dec-07 02:48N 33°44' W 118°17'0 0.2
2019-Dec-07 01:00N 33°44' W 118°17'0 0.1
2019-Dec-06 23:59N 33°44' W 118°17'0 0.0
2019-Dec-06 23:19N 33°44' W 118°17'0 0.0
2019-Dec-06 21:29N 33°44' W 118°17'0 0.0
2019-Dec-06 21:00N 33°44' W 118°17'0 0.0
2019-Dec-06 19:54N 33°44' W 118°17'0 0.0
2019-Dec-06 19:07N 33°44' W 118°17'0 0.0
2019-Dec-06 16:52N 33°44' W 118°17'0 0.0
2019-Dec-06 15:59N 33°44' W 118°17'0 0.0
2019-Dec-06 14:27N 33°44' W 118°17'0 0.0
2019-Dec-06 13:51N 33°44' W 118°17'0 0.0
2019-Dec-06 12:55N 33°44' W 118°17'0 0.0
2019-Dec-06 12:20N 33°44' W 118°17'0 0.0
2019-Dec-06 11:50N 33°44' W 118°17'0 0.0
2019-Dec-06 10:56N 33°44' W 118°17'0 0.0
2019-Dec-06 06:36N 33°44' W 118°17'0 0.0
2019-Dec-06 06:16N 33°44' W 118°17'0 0.0
2019-Dec-06 04:28N 33°44' W 118°17'0 0.0
2019-Dec-06 01:57N 33°44' W 118°17'0 0.0
2019-Dec-06 01:26N 33°44' W 118°17'0 0.0
2019-Dec-05 22:28N 33°44' W 118°17'0 0.0
2019-Dec-05 19:18N 33°44' W 118°17'0 0.0
2019-Dec-05 18:21N 33°44' W 118°17'0 0.0
2019-Dec-05 17:26N 33°44' W 118°17'0 0.0
2019-Dec-05 16:30N 33°44' W 118°17'0 0.0
2019-Dec-05 15:28N 33°44' W 118°17'0 0.0
2019-Dec-05 13:26N 33°44' W 118°17'0 0.0
2019-Dec-05 12:54N 33°44' W 118°17'0 0.0
2019-Dec-05 09:00N 33°44' W 118°17'0 0.0
2019-Dec-05 05:46N 33°44' W 118°17'0 0.0
2019-Dec-05 05:12N 33°44' W 118°17'0 0.0
2019-Dec-05 04:55N 33°44' W 118°17'0 0.0
2019-Dec-05 01:59N 33°44' W 118°17'0 0.0
2019-Dec-05 01:00N 33°44' W 118°17'0 0.0
2019-Dec-04 18:55N 33°44' W 118°17'0 0.0
2019-Dec-04 16:54N 33°44' W 118°17'0 0.0
2019-Dec-04 12:00N 33°44' W 118°17'0 0.0
2019-Dec-04 09:05N 33°44' W 118°17'0 0.0
2019-Dec-04 08:28N 33°44' W 118°17'0 0.0
2019-Dec-04 06:04N 33°44' W 118°17'0 0.0
2019-Dec-04 05:30N 33°44' W 118°17'0 0.0
2019-Dec-04 04:51N 33°44' W 118°17'0 0.0
2019-Dec-04 03:57N 33°44' W 118°17'0 0.0
2019-Dec-04 03:26N 33°44' W 118°17'0 0.0
2019-Dec-04 02:28N 33°44' W 118°17'0 0.0
2019-Dec-04 01:51N 33°44' W 118°17'0 0.0
2019-Dec-04 00:10N 33°44' W 118°17'0 0.0
2019-Dec-03 23:04N 33°44' W 118°17'0 0.0
2019-Dec-03 21:28N 33°44' W 118°17'0 0.2
2019-Dec-03 21:00N 33°44' W 118°17'1 1.6
2019-Dec-03 20:30N 33°43' W 118°16'1 2.0
2019-Dec-03 20:00N 33°43' W 118°15'2 0.6
2019-Dec-03 16:58N 33°44' W 118°17'0 0.0
2019-Dec-03 14:48N 33°44' W 118°17'0 0.0
2019-Dec-03 13:28N 33°44' W 118°17'0 0.0
2019-Dec-03 11:27N 33°44' W 118°17'0 0.0
2019-Dec-03 09:26N 33°44' W 118°17'0 0.0
2019-Dec-03 08:59N 33°44' W 118°17'0 0.0
2019-Dec-03 08:17N 33°44' W 118°17'0 0.0
2019-Dec-03 07:29N 33°44' W 118°17'0 0.0
2019-Dec-03 06:09N 33°44' W 118°17'0 0.0
2019-Dec-03 05:29N 33°44' W 118°17'0 0.0
2019-Dec-03 04:29N 33°44' W 118°17'0 0.0
2019-Dec-03 03:57N 33°44' W 118°17'0 0.0
2019-Dec-03 03:24N 33°44' W 118°17'0 0.0
2019-Dec-03 00:28N 33°44' W 118°17'0 0.0
2019-Dec-02 22:58N 33°44' W 118°17'0 0.0
2019-Dec-02 22:25N 33°44' W 118°17'0 0.0
2019-Dec-02 21:30N 33°44' W 118°17'0 0.0
2019-Dec-02 19:21N 33°44' W 118°17'0 0.0
2019-Dec-02 18:57N 33°44' W 118°17'0 0.0
2019-Dec-02 18:29N 33°44' W 118°17'0 0.0
2019-Dec-02 17:27N 33°44' W 118°17'0 0.0
2019-Dec-02 16:57N 33°44' W 118°17'0 0.0
2019-Dec-02 15:59N 33°44' W 118°17'0 0.0
2019-Dec-02 12:57N 33°44' W 118°17'0 0.0
2019-Dec-02 11:29N 33°44' W 118°17'0 0.0
2019-Dec-02 08:28N 33°44' W 118°17'  
Track history (hours):
 
Tides and Currents Weather Stations Pressure Air Temp Water Temp Dewpoint Dewpoint Depression Visibility Wind Speed Wind Dir Waves Ship Positions

Irving Johnson (United States)

Ship's website: http://www.lamitopsail.org/

Owner: Los Angeles Maritime Institute, San Pedro, CA. More information available from US FCC via Universal Licensing System and Coast Guard Vessel Documentation Center.

Last reported at 2019-Dec-12 07:29 UTC. Time now 2019-Dec-12 08:10 UTC.
Position N 33°44' W 118°17'.

; draft 4 m.

Type: Sailing vessel. MMSI: 369725000.

Date/timePositionNaut miles runAvg speedWind from/ knotsBaromVisibWave heightAir tempDewpointWater temp
2019-Dec-12 07:29N 33°44' W 118°17'0 0.0
2019-Dec-12 05:59N 33°44' W 118°17'0 0.0
2019-Dec-12 04:30N 33°44' W 118°17'0 0.0
2019-Dec-12 01:58N 33°44' W 118°17'0 0.0
2019-Dec-12 01:28N 33°44' W 118°17'0 0.0
2019-Dec-12 00:23N 33°44' W 118°17'0 0.0
2019-Dec-11 23:59N 33°44' W 118°17'0 0.0
2019-Dec-11 22:28N 33°44' W 118°17'0 0.0
2019-Dec-11 20:56N 33°44' W 118°17'0 0.0
2019-Dec-11 19:29N 33°44' W 118°17'0 0.0
2019-Dec-11 10:59N 33°44' W 118°17'0 0.0
2019-Dec-11 08:54N 33°44' W 118°17'0 0.0
2019-Dec-11 07:29N 33°44' W 118°17'0 0.0
2019-Dec-11 05:58N 33°44' W 118°17'0 0.0
2019-Dec-11 04:26N 33°44' W 118°17'0 0.0
2019-Dec-11 03:31N 33°44' W 118°17'0 0.0
2019-Dec-11 03:01N 33°44' W 118°17'1 0.3
2019-Dec-10 23:00N 33°43' W 118°16'1 1.1
2019-Dec-10 21:58N 33°44' W 118°17'0 0.0
2019-Dec-10 20:25N 33°44' W 118°17'3 1.5
2019-Dec-10 18:30N 33°42' W 118°14'2 1.2
2019-Dec-10 16:30N 33°43' W 118°16'1 0.3
2019-Dec-10 14:30N 33°44' W 118°17'0 0.0
2019-Dec-10 12:50N 33°44' W 118°17'0 0.0
2019-Dec-10 12:29N 33°44' W 118°17'0 0.0
2019-Dec-10 11:27N 33°44' W 118°17'0 0.0
2019-Dec-10 10:23N 33°44' W 118°17'0 0.0
2019-Dec-10 09:24N 33°44' W 118°17'0 0.0
2019-Dec-10 08:37N 33°44' W 118°17'0 0.0
2019-Dec-10 06:29N 33°44' W 118°17'0 0.0
2019-Dec-10 02:45N 33°44' W 118°17'0 0.0
2019-Dec-10 01:58N 33°44' W 118°17'0 0.0
2019-Dec-09 21:58N 33°44' W 118°17'0 0.0
2019-Dec-09 20:58N 33°44' W 118°17'0 0.0
2019-Dec-09 20:25N 33°44' W 118°17'0 0.0
2019-Dec-09 19:54N 33°44' W 118°17'1 0.1
2019-Dec-09 04:30N 33°45' W 118°16'1 0.9
2019-Dec-09 03:26N 33°44' W 118°17'0 0.0
2019-Dec-08 22:23N 33°44' W 118°17'0 0.0
2019-Dec-08 20:27N 33°44' W 118°17'0 0.0
2019-Dec-08 19:53N 33°44' W 118°17'0 0.0
2019-Dec-08 17:56N 33°44' W 118°17'0 0.0
2019-Dec-08 16:51N 33°44' W 118°17'0 0.0
2019-Dec-08 12:55N 33°44' W 118°17'0 0.0
2019-Dec-08 10:34N 33°44' W 118°17'0 0.1
2019-Dec-08 09:53N 33°44' W 118°17'0 0.1
2019-Dec-08 09:00N 33°44' W 118°17'0 0.0
2019-Dec-08 03:30N 33°44' W 118°17'2 3.4
2019-Dec-08 03:01N 33°45' W 118°16'1 1.8
2019-Dec-08 02:30N 33°46' W 118°15'2 1.8
2019-Dec-08 01:30N 33°45' W 118°16'0 0.2
2019-Dec-07 23:59N 33°44' W 118°17'0 0.0
2019-Dec-07 23:28N 33°44' W 118°17'0 0.0
2019-Dec-07 21:27N 33°44' W 118°17'0 0.0
2019-Dec-07 20:30N 33°44' W 118°17'0 0.0
2019-Dec-07 15:29N 33°44' W 118°17'0 0.0
2019-Dec-07 14:24N 33°44' W 118°17'0 0.0
2019-Dec-07 13:58N 33°44' W 118°17'0 0.0
2019-Dec-07 10:28N 33°44' W 118°17'0 0.0
2019-Dec-07 09:29N 33°44' W 118°17'0 0.0
2019-Dec-07 08:19N 33°44' W 118°17'0 0.0
2019-Dec-07 07:00N 33°44' W 118°17'0 0.0
2019-Dec-07 06:24N 33°44' W 118°17'0 0.0
2019-Dec-07 04:30N 33°44' W 118°17'0 0.0
2019-Dec-07 02:48N 33°44' W 118°17'0 0.2
2019-Dec-07 01:00N 33°44' W 118°17'0 0.1
2019-Dec-06 23:59N 33°44' W 118°17'0 0.0
2019-Dec-06 23:19N 33°44' W 118°17'0 0.0
2019-Dec-06 21:29N 33°44' W 118°17'0 0.0
2019-Dec-06 21:00N 33°44' W 118°17'0 0.0
2019-Dec-06 19:54N 33°44' W 118°17'0 0.0
2019-Dec-06 19:07N 33°44' W 118°17'0 0.0
2019-Dec-06 16:52N 33°44' W 118°17'0 0.0
2019-Dec-06 15:59N 33°44' W 118°17'0 0.0
2019-Dec-06 14:27N 33°44' W 118°17'0 0.0
2019-Dec-06 13:51N 33°44' W 118°17'0 0.0
2019-Dec-06 12:55N 33°44' W 118°17'0 0.0
2019-Dec-06 12:20N 33°44' W 118°17'0 0.0
2019-Dec-06 11:50N 33°44' W 118°17'0 0.0
2019-Dec-06 10:56N 33°44' W 118°17'0 0.0
2019-Dec-06 06:36N 33°44' W 118°17'0 0.0
2019-Dec-06 06:16N 33°44' W 118°17'0 0.0
2019-Dec-06 04:28N 33°44' W 118°17'0 0.0
2019-Dec-06 01:57N 33°44' W 118°17'0 0.0
2019-Dec-06 01:26N 33°44' W 118°17'0 0.0
2019-Dec-05 22:28N 33°44' W 118°17'0 0.0
2019-Dec-05 19:18N 33°44' W 118°17'0 0.0
2019-Dec-05 18:21N 33°44' W 118°17'0 0.0
2019-Dec-05 17:26N 33°44' W 118°17'0 0.0
2019-Dec-05 16:30N 33°44' W 118°17'0 0.0
2019-Dec-05 15:28N 33°44' W 118°17'0 0.0
2019-Dec-05 13:26N 33°44' W 118°17'0 0.0
2019-Dec-05 12:54N 33°44' W 118°17'0 0.0
2019-Dec-05 09:00N 33°44' W 118°17'0 0.0
2019-Dec-05 05:46N 33°44' W 118°17'0 0.0
2019-Dec-05 05:12N 33°44' W 118°17'0 0.0
2019-Dec-05 04:55N 33°44' W 118°17'0 0.0
2019-Dec-05 01:59N 33°44' W 118°17'0 0.0
2019-Dec-05 01:00N 33°44' W 118°17'0 0.0
2019-Dec-04 18:55N 33°44' W 118°17'0 0.0
2019-Dec-04 16:54N 33°44' W 118°17'0 0.0
2019-Dec-04 12:00N 33°44' W 118°17'0 0.0
2019-Dec-04 09:05N 33°44' W 118°17'0 0.0
2019-Dec-04 08:28N 33°44' W 118°17'0 0.0
2019-Dec-04 06:04N 33°44' W 118°17'0 0.0
2019-Dec-04 05:30N 33°44' W 118°17'0 0.0
2019-Dec-04 04:51N 33°44' W 118°17'0 0.0
2019-Dec-04 03:57N 33°44' W 118°17'0 0.0
2019-Dec-04 03:26N 33°44' W 118°17'0 0.0
2019-Dec-04 02:28N 33°44' W 118°17'0 0.0
2019-Dec-04 01:51N 33°44' W 118°17'0 0.0
2019-Dec-04 00:10N 33°44' W 118°17'0 0.0
2019-Dec-03 23:04N 33°44' W 118°17'0 0.0
2019-Dec-03 21:28N 33°44' W 118°17'0 0.2
2019-Dec-03 21:00N 33°44' W 118°17'1 1.6
2019-Dec-03 20:30N 33°43' W 118°16'1 2.0
2019-Dec-03 20:00N 33°43' W 118°15'2 0.6
2019-Dec-03 16:58N 33°44' W 118°17'0 0.0
2019-Dec-03 14:48N 33°44' W 118°17'0 0.0
2019-Dec-03 13:28N 33°44' W 118°17'0 0.0
2019-Dec-03 11:27N 33°44' W 118°17'0 0.0
2019-Dec-03 09:26N 33°44' W 118°17'0 0.0
2019-Dec-03 08:59N 33°44' W 118°17'0 0.0
2019-Dec-03 08:17N 33°44' W 118°17'0 0.0
2019-Dec-03 07:29N 33°44' W 118°17'0 0.0
2019-Dec-03 06:09N 33°44' W 118°17'0 0.0
2019-Dec-03 05:29N 33°44' W 118°17'0 0.0
2019-Dec-03 04:29N 33°44' W 118°17'0 0.0
2019-Dec-03 03:57N 33°44' W 118°17'0 0.0
2019-Dec-03 03:24N 33°44' W 118°17'0 0.0
2019-Dec-03 00:28N 33°44' W 118°17'0 0.0
2019-Dec-02 22:58N 33°44' W 118°17'0 0.0
2019-Dec-02 22:25N 33°44' W 118°17'0 0.0
2019-Dec-02 21:30N 33°44' W 118°17'0 0.0
2019-Dec-02 19:21N 33°44' W 118°17'0 0.0
2019-Dec-02 18:57N 33°44' W 118°17'0 0.0
2019-Dec-02 18:29N 33°44' W 118°17'0 0.0
2019-Dec-02 17:27N 33°44' W 118°17'0 0.0
2019-Dec-02 16:57N 33°44' W 118°17'0 0.0
2019-Dec-02 15:59N 33°44' W 118°17'0 0.0
2019-Dec-02 12:57N 33°44' W 118°17'0 0.0
2019-Dec-02 11:29N 33°44' W 118°17'0 0.0
2019-Dec-02 08:28N 33°44' W 118°17'  

Dump ship's entire track history